sensor_id;sensor_type;location;lat;lon;timestamp;pressure;altitude;pressure_sealevel;temperature;humidity
43119;BME280;28729;49.838;8.650;2023-06-22T00:02:56;99774.56;;;23.05;100.00
43119;BME280;28729;49.838;8.650;2023-06-22T00:06:58;99767.97;;;23.01;100.00
43119;BME280;28729;49.838;8.650;2023-06-22T00:11:00;99775.75;;;22.95;100.00
43119;BME280;28729;49.838;8.650;2023-06-22T00:15:02;99781.69;;;22.94;100.00
43119;BME280;28729;49.838;8.650;2023-06-22T00:19:05;99775.41;;;22.88;100.00
43119;BME280;28729;49.838;8.650;2023-06-22T00:23:07;99785.50;;;22.81;100.00
43119;BME280;28729;49.838;8.650;2023-06-22T00:27:11;99810.13;;;22.75;100.00
43119;BME280;28729;49.838;8.650;2023-06-22T00:31:13;99845.50;;;22.67;100.00
43119;BME280;28729;49.838;8.650;2023-06-22T00:35:15;99869.28;;;22.61;100.00
43119;BME280;28729;49.838;8.650;2023-06-22T00:39:17;99900.19;;;22.61;100.00
43119;BME280;28729;49.838;8.650;2023-06-22T00:43:18;99903.81;;;22.62;100.00
43119;BME280;28729;49.838;8.650;2023-06-22T00:47:21;99914.88;;;22.58;100.00
43119;BME280;28729;49.838;8.650;2023-06-22T00:51:23;99912.22;;;22.53;100.00
43119;BME280;28729;49.838;8.650;2023-06-22T00:55:26;99891.88;;;22.47;100.00
43119;BME280;28729;49.838;8.650;2023-06-22T00:59:28;99956.47;;;22.47;100.00
43119;BME280;28729;49.838;8.650;2023-06-22T01:03:30;100018.53;;;22.37;100.00
43119;BME280;28729;49.838;8.650;2023-06-22T01:07:35;100065.59;;;22.32;100.00
43119;BME280;28729;49.838;8.650;2023-06-22T01:11:49;100097.47;;;22.13;100.00
43119;BME280;28729;49.838;8.650;2023-06-22T01:16:02;100094.41;;;22.01;100.00
43119;BME280;28729;49.838;8.650;2023-06-22T01:20:07;100005.72;;;21.91;100.00
43119;BME280;28729;49.838;8.650;2023-06-22T01:24:30;99825.94;;;21.70;100.00
43119;BME280;28729;49.838;8.650;2023-06-22T01:28:49;99727.56;;;21.49;100.00
43119;BME280;28729;49.838;8.650;2023-06-22T01:32:53;99683.59;;;21.27;100.00
43119;BME280;28729;49.838;8.650;2023-06-22T01:36:56;99681.38;;;21.07;100.00
43119;BME280;28729;49.838;8.650;2023-06-22T01:41:00;99711.47;;;20.92;100.00
43119;BME280;28729;49.838;8.650;2023-06-22T01:45:03;99768.44;;;20.88;100.00
43119;BME280;28729;49.838;8.650;2023-06-22T01:49:08;99812.34;;;20.79;100.00
43119;BME280;28729;49.838;8.650;2023-06-22T01:53:10;99823.38;;;20.75;100.00
43119;BME280;28729;49.838;8.650;2023-06-22T01:57:12;99806.38;;;20.71;100.00
43119;BME280;28729;49.838;8.650;2023-06-22T02:01:18;99805.56;;;20.71;100.00
43119;BME280;28729;49.838;8.650;2023-06-22T02:05:23;99821.19;;;20.72;100.00
43119;BME280;28729;49.838;8.650;2023-06-22T02:09:29;99819.56;;;20.71;100.00
43119;BME280;28729;49.838;8.650;2023-06-22T02:13:32;99813.78;;;20.67;100.00
43119;BME280;28729;49.838;8.650;2023-06-22T02:17:34;99827.56;;;20.64;100.00
43119;BME280;28729;49.838;8.650;2023-06-22T02:21:36;99836.59;;;20.61;100.00
43119;BME280;28729;49.838;8.650;2023-06-22T02:25:39;99831.63;;;20.58;100.00
43119;BME280;28729;49.838;8.650;2023-06-22T02:29:41;99821.38;;;20.53;100.00
43119;BME280;28729;49.838;8.650;2023-06-22T02:33:43;99809.44;;;20.47;100.00
43119;BME280;28729;49.838;8.650;2023-06-22T02:37:47;99809.56;;;20.42;100.00
43119;BME280;28729;49.838;8.650;2023-06-22T02:41:54;99813.31;;;20.38;100.00
43119;BME280;28729;49.838;8.650;2023-06-22T02:45:56;99817.03;;;20.33;100.00
43119;BME280;28729;49.838;8.650;2023-06-22T02:49:58;99817.47;;;20.26;100.00
43119;BME280;28729;49.838;8.650;2023-06-22T02:54:00;99824.63;;;20.19;100.00
43119;BME280;28729;49.838;8.650;2023-06-22T02:58:03;99809.22;;;20.08;100.00
43119;BME280;28729;49.838;8.650;2023-06-22T03:02:09;99816.06;;;20.01;100.00
43119;BME280;28729;49.838;8.650;2023-06-22T03:06:11;99812.56;;;19.96;100.00
43119;BME280;28729;49.838;8.650;2023-06-22T03:10:16;99797.25;;;19.93;100.00
43119;BME280;28729;49.838;8.650;2023-06-22T03:14:18;99796.81;;;19.86;100.00
43119;BME280;28729;49.838;8.650;2023-06-22T03:18:20;99782.97;;;19.81;100.00
43119;BME280;28729;49.838;8.650;2023-06-22T03:22:24;99777.97;;;19.78;100.00
43119;BME280;28729;49.838;8.650;2023-06-22T03:26:26;99780.75;;;19.78;100.00
43119;BME280;28729;49.838;8.650;2023-06-22T03:30:28;99774.97;;;19.74;100.00
43119;BME280;28729;49.838;8.650;2023-06-22T03:34:30;99755.22;;;19.71;100.00
43119;BME280;28729;49.838;8.650;2023-06-22T03:38:35;99758.53;;;19.73;100.00
43119;BME280;28729;49.838;8.650;2023-06-22T03:42:36;99759.25;;;19.78;100.00
43119;BME280;28729;49.838;8.650;2023-06-22T03:46:38;99768.34;;;19.84;100.00
43119;BME280;28729;49.838;8.650;2023-06-22T03:50:40;99774.00;;;19.93;100.00
43119;BME280;28729;49.838;8.650;2023-06-22T03:54:42;99773.28;;;20.01;100.00
43119;BME280;28729;49.838;8.650;2023-06-22T03:58:44;99778.16;;;20.09;100.00
43119;BME280;28729;49.838;8.650;2023-06-22T04:02:46;99769.66;;;20.14;100.00
43119;BME280;28729;49.838;8.650;2023-06-22T04:06:48;99773.16;;;20.20;100.00
43119;BME280;28729;49.838;8.650;2023-06-22T04:10:50;99771.03;;;20.25;100.00
43119;BME280;28729;49.838;8.650;2023-06-22T04:14:51;99763.34;;;20.31;100.00
43119;BME280;28729;49.838;8.650;2023-06-22T04:18:53;99780.03;;;20.36;100.00
43119;BME280;28729;49.838;8.650;2023-06-22T04:22:55;99773.16;;;20.42;100.00
43119;BME280;28729;49.838;8.650;2023-06-22T04:26:57;99762.50;;;20.44;100.00
43119;BME280;28729;49.838;8.650;2023-06-22T04:31:02;99758.53;;;20.45;100.00
43119;BME280;28729;49.838;8.650;2023-06-22T04:35:05;99757.72;;;20.45;100.00
43119;BME280;28729;49.838;8.650;2023-06-22T04:39:12;99758.72;;;20.49;100.00
43119;BME280;28729;49.838;8.650;2023-06-22T04:43:14;99763.94;;;20.56;100.00
43119;BME280;28729;49.838;8.650;2023-06-22T04:47:15;99776.78;;;20.57;100.00
43119;BME280;28729;49.838;8.650;2023-06-22T04:51:17;99768.56;;;20.60;100.00
43119;BME280;28729;49.838;8.650;2023-06-22T04:55:23;99758.41;;;20.64;100.00
43119;BME280;28729;49.838;8.650;2023-06-22T04:59:28;99775.88;;;20.70;100.00
43119;BME280;28729;49.838;8.650;2023-06-22T05:03:32;99772.44;;;20.73;100.00
43119;BME280;28729;49.838;8.650;2023-06-22T05:07:35;99762.59;;;20.76;100.00
43119;BME280;28729;49.838;8.650;2023-06-22T05:11:37;99761.75;;;20.75;100.00
43119;BME280;28729;49.838;8.650;2023-06-22T05:15:39;99765.59;;;20.79;100.00
43119;BME280;28729;49.838;8.650;2023-06-22T05:19:41;99754.25;;;20.84;100.00
43119;BME280;28729;49.838;8.650;2023-06-22T05:23:46;99753.28;;;20.89;100.00
43119;BME280;28729;49.838;8.650;2023-06-22T05:27:48;99751.19;;;20.94;100.00
43119;BME280;28729;49.838;8.650;2023-06-22T05:31:53;99748.75;;;21.02;100.00
43119;BME280;28729;49.838;8.650;2023-06-22T05:35:55;99737.41;;;21.07;100.00
43119;BME280;28729;49.838;8.650;2023-06-22T05:39:57;99746.69;;;21.16;100.00
43119;BME280;28729;49.838;8.650;2023-06-22T05:43:59;99743.28;;;21.28;100.00
43119;BME280;28729;49.838;8.650;2023-06-22T05:48:02;99743.84;;;21.38;100.00
43119;BME280;28729;49.838;8.650;2023-06-22T05:52:05;99739.59;;;21.50;100.00
43119;BME280;28729;49.838;8.650;2023-06-22T05:56:08;99745.41;;;21.62;100.00
43119;BME280;28729;49.838;8.650;2023-06-22T06:00:12;99728.78;;;21.74;100.00
43119;BME280;28729;49.838;8.650;2023-06-22T06:04:20;99739.72;;;21.93;100.00
43119;BME280;28729;49.838;8.650;2023-06-22T06:08:22;99732.97;;;22.12;100.00
43119;BME280;28729;49.838;8.650;2023-06-22T06:12:26;99734.34;;;22.32;100.00
43119;BME280;28729;49.838;8.650;2023-06-22T06:16:28;99727.22;;;22.51;100.00
43119;BME280;28729;49.838;8.650;2023-06-22T06:20:30;99720.44;;;22.70;100.00
43119;BME280;28729;49.838;8.650;2023-06-22T06:24:32;99725.16;;;22.87;100.00
43119;BME280;28729;49.838;8.650;2023-06-22T06:28:35;99718.88;;;23.07;100.00
43119;BME280;28729;49.838;8.650;2023-06-22T06:32:38;99711.84;;;23.31;100.00
43119;BME280;28729;49.838;8.650;2023-06-22T06:36:43;99714.56;;;23.48;100.00
43119;BME280;28729;49.838;8.650;2023-06-22T06:40:46;99715.16;;;23.62;100.00
43119;BME280;28729;49.838;8.650;2023-06-22T06:44:49;99726.34;;;23.80;100.00
43119;BME280;28729;49.838;8.650;2023-06-22T06:48:51;99733.38;;;23.95;100.00
43119;BME280;28729;49.838;8.650;2023-06-22T06:52:53;99719.31;;;24.16;100.00
43119;BME280;28729;49.838;8.650;2023-06-22T06:56:58;99715.13;;;24.43;100.00
43119;BME280;28729;49.838;8.650;2023-06-22T07:01:02;99711.91;;;24.65;100.00
43119;BME280;28729;49.838;8.650;2023-06-22T07:05:05;99716.69;;;24.86;100.00
43119;BME280;28729;49.838;8.650;2023-06-22T07:09:07;99698.97;;;24.97;100.00
43119;BME280;28729;49.838;8.650;2023-06-22T07:13:09;99698.88;;;25.06;100.00
43119;BME280;28729;49.838;8.650;2023-06-22T07:17:12;99693.28;;;25.18;100.00
43119;BME280;28729;49.838;8.650;2023-06-22T07:21:17;99696.00;;;25.27;100.00
43119;BME280;28729;49.838;8.650;2023-06-22T07:25:19;99699.31;;;25.29;100.00
43119;BME280;28729;49.838;8.650;2023-06-22T07:29:23;99708.81;;;25.49;100.00
43119;BME280;28729;49.838;8.650;2023-06-22T07:33:26;99714.34;;;25.58;100.00
43119;BME280;28729;49.838;8.650;2023-06-22T07:37:30;99704.13;;;25.65;100.00
43119;BME280;28729;49.838;8.650;2023-06-22T07:41:34;99696.69;;;25.61;100.00
43119;BME280;28729;49.838;8.650;2023-06-22T07:45:38;99697.28;;;25.66;100.00
43119;BME280;28729;49.838;8.650;2023-06-22T07:49:42;99701.16;;;25.99;100.00
43119;BME280;28729;49.838;8.650;2023-06-22T07:53:44;99704.75;;;26.24;100.00
43119;BME280;28729;49.838;8.650;2023-06-22T07:57:49;99696.81;;;26.42;100.00
43119;BME280;28729;49.838;8.650;2023-06-22T08:01:55;99708.94;;;26.70;99.19
43119;BME280;28729;49.838;8.650;2023-06-22T08:05:57;99699.16;;;26.96;96.51
43119;BME280;28729;49.838;8.650;2023-06-22T08:10:04;99697.78;;;27.05;94.35
43119;BME280;28729;49.838;8.650;2023-06-22T08:14:06;99690.69;;;27.27;89.26
43119;BME280;28729;49.838;8.650;2023-06-22T08:18:08;99681.03;;;27.44;89.62
43119;BME280;28729;49.838;8.650;2023-06-22T08:22:12;99686.41;;;27.49;88.91
43119;BME280;28729;49.838;8.650;2023-06-22T08:26:17;99676.00;;;27.54;88.15
43119;BME280;28729;49.838;8.650;2023-06-22T08:30:19;99668.84;;;27.76;85.71
43119;BME280;28729;49.838;8.650;2023-06-22T08:34:21;99661.59;;;27.94;82.58
43119;BME280;28729;49.838;8.650;2023-06-22T08:38:26;99655.78;;;28.06;81.87
43119;BME280;28729;49.838;8.650;2023-06-22T08:42:29;99655.56;;;28.15;79.10
43119;BME280;28729;49.838;8.650;2023-06-22T08:46:31;99649.81;;;28.31;77.70
43119;BME280;28729;49.838;8.650;2023-06-22T08:50:35;99650.50;;;28.63;76.77
43119;BME280;28729;49.838;8.650;2023-06-22T08:54:39;99641.06;;;29.01;74.93
43119;BME280;28729;49.838;8.650;2023-06-22T08:58:41;99655.03;;;29.33;73.03
43119;BME280;28729;49.838;8.650;2023-06-22T09:02:44;99657.31;;;29.50;71.17
43119;BME280;28729;49.838;8.650;2023-06-22T09:06:47;99644.66;;;29.44;71.73
43119;BME280;28729;49.838;8.650;2023-06-22T09:10:50;99661.34;;;29.72;69.18
43119;BME280;28729;49.838;8.650;2023-06-22T09:14:53;99639.94;;;29.79;69.30
43119;BME280;28729;49.838;8.650;2023-06-22T09:18:56;99643.50;;;30.02;68.23
43119;BME280;28729;49.838;8.650;2023-06-22T09:22:58;99617.41;;;30.23;65.79
43119;BME280;28729;49.838;8.650;2023-06-22T09:27:00;99608.75;;;30.46;64.47
43119;BME280;28729;49.838;8.650;2023-06-22T09:31:01;99619.56;;;30.71;61.38
43119;BME280;28729;49.838;8.650;2023-06-22T09:35:05;99621.09;;;30.61;61.53
43119;BME280;28729;49.838;8.650;2023-06-22T09:39:10;99630.28;;;30.47;62.00
43119;BME280;28729;49.838;8.650;2023-06-22T09:43:12;99607.25;;;30.59;61.21
43119;BME280;28729;49.838;8.650;2023-06-22T09:47:18;99617.06;;;31.03;58.23
43119;BME280;28729;49.838;8.650;2023-06-22T09:51:22;99617.13;;;31.14;57.61
43119;BME280;28729;49.838;8.650;2023-06-22T09:55:27;99617.56;;;31.12;57.30
43119;BME280;28729;49.838;8.650;2023-06-22T09:59:30;99590.28;;;31.11;56.14
43119;BME280;28729;49.838;8.650;2023-06-22T10:03:33;99584.13;;;31.05;56.35
43119;BME280;28729;49.838;8.650;2023-06-22T10:07:36;99572.84;;;31.13;57.41
43119;BME280;28729;49.838;8.650;2023-06-22T10:11:44;99561.44;;;31.13;58.71
43119;BME280;28729;49.838;8.650;2023-06-22T10:15:46;99555.47;;;31.32;56.98
43119;BME280;28729;49.838;8.650;2023-06-22T10:19:53;99548.31;;;31.56;55.47
43119;BME280;28729;49.838;8.650;2023-06-22T10:23:55;99543.13;;;31.69;55.38
43119;BME280;28729;49.838;8.650;2023-06-22T10:27:57;99536.28;;;31.88;53.86
43119;BME280;28729;49.838;8.650;2023-06-22T10:32:01;99526.09;;;31.87;53.78
43119;BME280;28729;49.838;8.650;2023-06-22T10:36:03;99530.13;;;31.71;54.41
43119;BME280;28729;49.838;8.650;2023-06-22T10:40:06;99506.16;;;31.83;54.19
43119;BME280;28729;49.838;8.650;2023-06-22T10:44:11;99511.59;;;32.31;52.37
43119;BME280;28729;49.838;8.650;2023-06-22T10:48:17;99496.16;;;32.54;51.56
43119;BME280;28729;49.838;8.650;2023-06-22T10:52:20;99505.97;;;32.74;50.95
43119;BME280;28729;49.838;8.650;2023-06-22T10:56:25;99492.03;;;33.33;50.04
43119;BME280;28729;49.838;8.650;2023-06-22T11:00:29;99468.75;;;33.56;49.80
43119;BME280;28729;49.838;8.650;2023-06-22T11:04:34;99459.28;;;33.74;48.42
43119;BME280;28729;49.838;8.650;2023-06-22T11:08:37;99465.50;;;33.54;48.56
43119;BME280;28729;49.838;8.650;2023-06-22T11:12:44;99462.28;;;33.31;47.73
43119;BME280;28729;49.838;8.650;2023-06-22T11:16:47;99451.16;;;33.65;48.56
43119;BME280;28729;49.838;8.650;2023-06-22T11:20:50;99448.13;;;33.94;47.13
43119;BME280;28729;49.838;8.650;2023-06-22T11:24:54;99433.66;;;34.26;47.23
43119;BME280;28729;49.838;8.650;2023-06-22T11:28:56;99433.72;;;34.71;45.27
43119;BME280;28729;49.838;8.650;2023-06-22T11:33:00;99422.69;;;35.14;43.85
43119;BME280;28729;49.838;8.650;2023-06-22T11:37:03;99423.25;;;34.95;43.41
43119;BME280;28729;49.838;8.650;2023-06-22T11:41:07;99419.88;;;35.11;43.13
43119;BME280;28729;49.838;8.650;2023-06-22T11:45:10;99422.00;;;35.37;42.67
43119;BME280;28729;49.838;8.650;2023-06-22T11:49:13;99417.69;;;35.22;43.05
43119;BME280;28729;49.838;8.650;2023-06-22T11:53:17;99418.56;;;35.15;43.05
43119;BME280;28729;49.838;8.650;2023-06-22T11:57:21;99407.75;;;35.30;41.69
43119;BME280;28729;49.838;8.650;2023-06-22T12:01:24;99383.66;;;35.62;41.17
43119;BME280;28729;49.838;8.650;2023-06-22T12:05:27;99399.78;;;35.79;40.67
43119;BME280;28729;49.838;8.650;2023-06-22T12:09:29;99404.78;;;36.02;40.34
43119;BME280;28729;49.838;8.650;2023-06-22T12:13:31;99396.88;;;36.10;39.97
43119;BME280;28729;49.838;8.650;2023-06-22T12:17:34;99389.28;;;36.47;40.10
43119;BME280;28729;49.838;8.650;2023-06-22T12:21:43;99390.03;;;36.98;37.79
43119;BME280;28729;49.838;8.650;2023-06-22T12:25:48;99394.66;;;37.15;36.82
43119;BME280;28729;49.838;8.650;2023-06-22T12:29:53;99373.56;;;37.42;36.95
43119;BME280;28729;49.838;8.650;2023-06-22T12:33:57;99379.91;;;37.53;37.03
43119;BME280;28729;49.838;8.650;2023-06-22T12:38:01;99360.97;;;37.36;36.68
43119;BME280;28729;49.838;8.650;2023-06-22T12:42:08;99365.88;;;37.75;36.69
43119;BME280;28729;49.838;8.650;2023-06-22T12:46:12;99364.44;;;38.20;35.01
43119;BME280;28729;49.838;8.650;2023-06-22T12:50:14;99367.59;;;37.89;35.66
43119;BME280;28729;49.838;8.650;2023-06-22T12:54:16;99369.00;;;37.65;35.97
43119;BME280;28729;49.838;8.650;2023-06-22T12:58:18;99373.50;;;38.18;34.92
43119;BME280;28729;49.838;8.650;2023-06-22T13:02:22;99371.06;;;38.33;33.98
43119;BME280;28729;49.838;8.650;2023-06-22T13:06:25;99367.31;;;38.98;33.55
43119;BME280;28729;49.838;8.650;2023-06-22T13:10:31;99358.63;;;38.69;32.46
43119;BME280;28729;49.838;8.650;2023-06-22T13:14:34;99348.84;;;39.25;31.74
43119;BME280;28729;49.838;8.650;2023-06-22T13:18:36;99347.81;;;40.12;29.72
43119;BME280;28729;49.838;8.650;2023-06-22T13:22:40;99345.16;;;40.30;29.05
43119;BME280;28729;49.838;8.650;2023-06-22T13:26:44;99349.69;;;40.18;29.08
43119;BME280;28729;49.838;8.650;2023-06-22T13:30:48;99345.28;;;40.01;29.12
43119;BME280;28729;49.838;8.650;2023-06-22T13:34:53;99345.72;;;39.48;29.91
43119;BME280;28729;49.838;8.650;2023-06-22T13:38:56;99335.44;;;39.47;29.50
43119;BME280;28729;49.838;8.650;2023-06-22T13:42:58;99330.03;;;40.00;29.28
43119;BME280;28729;49.838;8.650;2023-06-22T13:47:00;99332.16;;;41.17;26.79
43119;BME280;28729;49.838;8.650;2023-06-22T13:51:02;99315.28;;;42.77;25.99
43119;BME280;28729;49.838;8.650;2023-06-22T13:55:05;99298.81;;;43.29;24.46
43119;BME280;28729;49.838;8.650;2023-06-22T13:59:09;99284.38;;;43.62;23.59
43119;BME280;28729;49.838;8.650;2023-06-22T14:03:14;99271.66;;;44.50;23.01
43119;BME280;28729;49.838;8.650;2023-06-22T14:07:17;99257.81;;;44.99;21.61
43119;BME280;28729;49.838;8.650;2023-06-22T14:11:21;99234.22;;;45.56;21.63
43119;BME280;28729;49.838;8.650;2023-06-22T14:15:25;99228.16;;;45.75;21.65
43119;BME280;28729;49.838;8.650;2023-06-22T14:19:27;99224.94;;;46.08;20.58
43119;BME280;28729;49.838;8.650;2023-06-22T14:23:30;99214.06;;;45.88;20.08
43119;BME280;28729;49.838;8.650;2023-06-22T14:27:33;99197.22;;;45.92;20.54
43119;BME280;28729;49.838;8.650;2023-06-22T14:31:35;99202.63;;;45.99;20.09
43119;BME280;28729;49.838;8.650;2023-06-22T14:35:39;99195.13;;;46.80;19.45
43119;BME280;28729;49.838;8.650;2023-06-22T14:39:41;99200.03;;;47.26;19.17
43119;BME280;28729;49.838;8.650;2023-06-22T14:43:47;99196.63;;;47.01;19.26
43119;BME280;28729;49.838;8.650;2023-06-22T14:47:49;99215.34;;;45.66;20.74
43119;BME280;28729;49.838;8.650;2023-06-22T14:51:52;99224.16;;;44.53;21.56
43119;BME280;28729;49.838;8.650;2023-06-22T14:55:56;99215.53;;;43.30;22.90
43119;BME280;28729;49.838;8.650;2023-06-22T15:00:00;99203.47;;;41.75;25.16
43119;BME280;28729;49.838;8.650;2023-06-22T15:04:08;99204.06;;;41.51;25.50
43119;BME280;28729;49.838;8.650;2023-06-22T15:08:11;99195.56;;;41.66;25.30
43119;BME280;28729;49.838;8.650;2023-06-22T15:12:12;99176.06;;;41.98;25.33
43119;BME280;28729;49.838;8.650;2023-06-22T15:16:15;99178.78;;;42.56;24.54
43119;BME280;28729;49.838;8.650;2023-06-22T15:20:18;99163.16;;;42.91;23.71
43119;BME280;28729;49.838;8.650;2023-06-22T15:24:20;99165.53;;;41.63;24.89
43119;BME280;28729;49.838;8.650;2023-06-22T15:28:25;99171.31;;;40.48;26.09
43119;BME280;28729;49.838;8.650;2023-06-22T15:32:27;99180.81;;;39.40;27.50
43119;BME280;28729;49.838;8.650;2023-06-22T15:36:30;99161.66;;;38.24;29.17
43119;BME280;28729;49.838;8.650;2023-06-22T15:40:32;99178.81;;;37.50;30.39
43119;BME280;28729;49.838;8.650;2023-06-22T15:44:35;99175.72;;;36.88;31.21
43119;BME280;28729;49.838;8.650;2023-06-22T15:48:38;99184.41;;;36.01;32.95
43119;BME280;28729;49.838;8.650;2023-06-22T15:52:43;99198.34;;;35.52;33.18
43119;BME280;28729;49.838;8.650;2023-06-22T15:56:51;99176.53;;;35.07;34.28
43119;BME280;28729;49.838;8.650;2023-06-22T16:00:54;99163.22;;;34.63;34.78
43119;BME280;28729;49.838;8.650;2023-06-22T16:04:58;99172.91;;;34.00;35.85
43119;BME280;28729;49.838;8.650;2023-06-22T16:09:01;99196.72;;;33.31;37.83
43119;BME280;28729;49.838;8.650;2023-06-22T16:13:05;99192.16;;;32.71;39.52
43119;BME280;28729;49.838;8.650;2023-06-22T16:17:08;99197.22;;;32.16;41.27
43119;BME280;28729;49.838;8.650;2023-06-22T16:21:10;99192.38;;;31.70;43.46
43119;BME280;28729;49.838;8.650;2023-06-22T16:25:14;99217.19;;;31.52;44.01
43119;BME280;28729;49.838;8.650;2023-06-22T16:29:16;99255.34;;;31.19;44.90
43119;BME280;28729;49.838;8.650;2023-06-22T16:33:19;99274.66;;;30.74;43.96
43119;BME280;28729;49.838;8.650;2023-06-22T16:37:22;99278.47;;;30.30;44.55
43119;BME280;28729;49.838;8.650;2023-06-22T16:41:25;99269.41;;;30.13;45.06
43119;BME280;28729;49.838;8.650;2023-06-22T16:45:30;99272.53;;;30.01;46.08
43119;BME280;28729;49.838;8.650;2023-06-22T16:49:34;99287.06;;;29.92;46.94
43119;BME280;28729;49.838;8.650;2023-06-22T16:53:38;99284.97;;;29.82;48.75
43119;BME280;28729;49.838;8.650;2023-06-22T16:57:41;99288.97;;;29.74;50.27
43119;BME280;28729;49.838;8.650;2023-06-22T17:01:51;99297.25;;;29.52;51.72
43119;BME280;28729;49.838;8.650;2023-06-22T17:05:58;99307.50;;;29.27;53.78
43119;BME280;28729;49.838;8.650;2023-06-22T17:10:02;99360.00;;;28.53;73.58
43119;BME280;28729;49.838;8.650;2023-06-22T17:14:06;99300.75;;;25.85;100.00
43119;BME280;28729;49.838;8.650;2023-06-22T17:18:08;99265.34;;;24.31;100.00
43119;BME280;28729;49.838;8.650;2023-06-22T17:22:11;99269.56;;;23.63;100.00
43119;BME280;28729;49.838;8.650;2023-06-22T17:26:13;99249.84;;;23.27;100.00
43119;BME280;28729;49.838;8.650;2023-06-22T17:30:17;99251.75;;;23.02;100.00
43119;BME280;28729;49.838;8.650;2023-06-22T17:34:27;99253.63;;;22.97;100.00
43119;BME280;28729;49.838;8.650;2023-06-22T17:38:30;99253.00;;;22.92;100.00
43119;BME280;28729;49.838;8.650;2023-06-22T17:42:32;99243.28;;;22.89;100.00
43119;BME280;28729;49.838;8.650;2023-06-22T17:46:35;99243.09;;;22.94;100.00
43119;BME280;28729;49.838;8.650;2023-06-22T17:50:43;99258.78;;;22.95;100.00
43119;BME280;28729;49.838;8.650;2023-06-22T17:54:45;99253.09;;;22.83;100.00
43119;BME280;28729;49.838;8.650;2023-06-22T17:58:53;99245.44;;;22.71;100.00
43119;BME280;28729;49.838;8.650;2023-06-22T18:02:55;99245.78;;;22.70;100.00
43119;BME280;28729;49.838;8.650;2023-06-22T18:06:58;99240.09;;;22.79;100.00
43119;BME280;28729;49.838;8.650;2023-06-22T18:11:04;99232.72;;;22.86;100.00
43119;BME280;28729;49.838;8.650;2023-06-22T18:15:27;99234.59;;;22.82;100.00
43119;BME280;28729;49.838;8.650;2023-06-22T18:19:31;99234.09;;;22.80;100.00
43119;BME280;28729;49.838;8.650;2023-06-22T18:23:37;99238.09;;;22.79;100.00
43119;BME280;28729;49.838;8.650;2023-06-22T18:27:40;99233.38;;;22.71;100.00
43119;BME280;28729;49.838;8.650;2023-06-22T18:31:44;99249.13;;;22.63;100.00
43119;BME280;28729;49.838;8.650;2023-06-22T18:35:48;99253.31;;;22.57;100.00
43119;BME280;28729;49.838;8.650;2023-06-22T18:39:54;99244.97;;;22.48;100.00
43119;BME280;28729;49.838;8.650;2023-06-22T18:43:59;99252.19;;;22.37;100.00
43119;BME280;28729;49.838;8.650;2023-06-22T18:48:05;99253.06;;;22.29;100.00
43119;BME280;28729;49.838;8.650;2023-06-22T18:56:14;99252.75;;;22.22;100.00
43119;BME280;28729;49.838;8.650;2023-06-22T19:00:17;99248.13;;;22.26;100.00
43119;BME280;28729;49.838;8.650;2023-06-22T19:04:19;99229.78;;;22.28;100.00
43119;BME280;28729;49.838;8.650;2023-06-22T19:08:22;99218.19;;;22.30;100.00
43119;BME280;28729;49.838;8.650;2023-06-22T19:12:25;99215.53;;;22.34;100.00
43119;BME280;28729;49.838;8.650;2023-06-22T19:16:30;99215.53;;;22.34;100.00
43119;BME280;28729;49.838;8.650;2023-06-22T19:20:32;99210.88;;;22.38;100.00
43119;BME280;28729;49.838;8.650;2023-06-22T19:24:49;99213.13;;;22.44;100.00
43119;BME280;28729;49.838;8.650;2023-06-22T19:28:55;99232.72;;;22.53;100.00
43119;BME280;28729;49.838;8.650;2023-06-22T19:33:01;99245.38;;;22.59;100.00
43119;BME280;28729;49.838;8.650;2023-06-22T19:37:16;99255.09;;;22.62;100.00
43119;BME280;28729;49.838;8.650;2023-06-22T19:41:20;99269.75;;;22.67;100.00
43119;BME280;28729;49.838;8.650;2023-06-22T19:45:23;99273.03;;;22.69;100.00
43119;BME280;28729;49.838;8.650;2023-06-22T19:49:26;99280.44;;;22.74;100.00
43119;BME280;28729;49.838;8.650;2023-06-22T19:53:28;99281.88;;;22.80;100.00
43119;BME280;28729;49.838;8.650;2023-06-22T19:57:33;99276.84;;;22.86;100.00
43119;BME280;28729;49.838;8.650;2023-06-22T20:01:38;99284.09;;;22.87;100.00
43119;BME280;28729;49.838;8.650;2023-06-22T20:05:43;99306.59;;;22.87;100.00
43119;BME280;28729;49.838;8.650;2023-06-22T20:09:45;99324.00;;;22.80;100.00
43119;BME280;28729;49.838;8.650;2023-06-22T20:14:06;99327.69;;;22.72;100.00
43119;BME280;28729;49.838;8.650;2023-06-22T20:18:10;99338.66;;;22.86;100.00
43119;BME280;28729;49.838;8.650;2023-06-22T20:22:12;99358.94;;;22.91;100.00
43119;BME280;28729;49.838;8.650;2023-06-22T20:26:14;99375.66;;;22.88;100.00
43119;BME280;28729;49.838;8.650;2023-06-22T20:30:20;99382.84;;;22.77;100.00
43119;BME280;28729;49.838;8.650;2023-06-22T20:34:24;99386.03;;;22.66;100.00
43119;BME280;28729;49.838;8.650;2023-06-22T20:38:26;99398.19;;;22.58;100.00
43119;BME280;28729;49.838;8.650;2023-06-22T20:42:30;99407.47;;;22.50;100.00
43119;BME280;28729;49.838;8.650;2023-06-22T20:46:33;99413.66;;;22.35;100.00
43119;BME280;28729;49.838;8.650;2023-06-22T20:50:36;99427.06;;;22.29;100.00
43119;BME280;28729;49.838;8.650;2023-06-22T20:54:38;99444.75;;;22.21;100.00
43119;BME280;28729;49.838;8.650;2023-06-22T20:58:40;99443.91;;;22.29;100.00
43119;BME280;28729;49.838;8.650;2023-06-22T21:02:42;99444.25;;;22.19;100.00
43119;BME280;28729;49.838;8.650;2023-06-22T21:06:45;99439.16;;;22.12;100.00
43119;BME280;28729;49.838;8.650;2023-06-22T21:10:47;99443.63;;;22.13;100.00
43119;BME280;28729;49.838;8.650;2023-06-22T21:14:50;99459.59;;;22.13;100.00
43119;BME280;28729;49.838;8.650;2023-06-22T21:18:52;99446.94;;;22.06;100.00
43119;BME280;28729;49.838;8.650;2023-06-22T21:22:54;99456.69;;;22.00;100.00
43119;BME280;28729;49.838;8.650;2023-06-22T21:26:56;99456.38;;;22.02;100.00